Althea — 9HAQ7 — position and weather

sailwx.info

Track history (hours):
 
Tides and Currents Weather Stations Pressure Air Temp Water Temp Dewpoint Dewpoint Depression Visibility Wind Speed Wind Dir Waves Ship Positions

Althea

Last reported at 2016-Jul-24 15:33 UTC. Time now 2016-Jul-24 16:36 UTC.
Position S 29°52' E 031°00'.

Length 170 m; draft 9.5 m.

Type: Cargo ship. MMSI: 215047000.

Date/timePositionNaut miles runAvg speedWind from/ knotsBaromVisibWave heightAir tempDewpointWater temp
2016-Jul-24 15:33S 29°52' E 031°00'0 0.0
2016-Jul-24 14:33S 29°52' E 031°00'0 0.0
2016-Jul-24 13:30S 29°52' E 031°00'0 0.0
2016-Jul-24 12:33S 29°52' E 031°00'0 0.0
2016-Jul-24 11:33S 29°52' E 031°00'0 0.0
2016-Jul-24 10:33S 29°52' E 031°00'0 0.0
2016-Jul-24 09:33S 29°52' E 031°00'0 0.0
2016-Jul-24 08:33S 29°52' E 031°00'0 0.0
2016-Jul-24 07:27S 29°52' E 031°00'0 0.0
2016-Jul-24 06:30S 29°52' E 031°00'0 0.0
2016-Jul-24 05:33S 29°52' E 031°00'0 0.0
2016-Jul-24 04:33S 29°52' E 031°00'0 0.0
2016-Jul-24 03:33S 29°52' E 031°00'0 0.0
2016-Jul-24 02:33S 29°52' E 031°00'0 0.0
2016-Jul-24 01:33S 29°52' E 031°00'0 0.0
2016-Jul-24 00:33S 29°52' E 031°00'0 0.0
2016-Jul-23 23:33S 29°52' E 031°00'0 0.0
2016-Jul-23 22:33S 29°52' E 031°00'0 0.0
2016-Jul-23 21:33S 29°52' E 031°00'0 0.0
2016-Jul-23 20:33S 29°52' E 031°00'0 0.0
2016-Jul-23 19:33S 29°52' E 031°00'0 0.0
2016-Jul-23 18:33S 29°52' E 031°00'0 0.0
2016-Jul-23 17:33S 29°52' E 031°00'0 0.0
2016-Jul-23 16:27S 29°52' E 031°00'0 0.0
2016-Jul-23 15:33S 29°52' E 031°00'0 0.0
2016-Jul-23 14:33S 29°52' E 031°00'0 0.0
2016-Jul-23 13:30S 29°52' E 031°00'0 0.0
2016-Jul-23 12:33S 29°52' E 031°00'0 0.0
2016-Jul-23 11:33S 29°52' E 031°00'0 0.0
2016-Jul-23 10:30S 29°52' E 031°00'0 0.0
2016-Jul-23 09:33S 29°52' E 031°00'0 0.0
2016-Jul-23 08:30S 29°52' E 031°00'3 0.3
2016-Jul-22 23:33S 29°52' E 031°04'4 4.3
2016-Jul-22 22:33S 29°48' E 031°07'1 1.1
2016-Jul-22 21:33S 29°49' E 031°07'4 4.3
2016-Jul-22 20:33S 29°46' E 031°10'0 0.4
2016-Jul-22 19:33S 29°46' E 031°11'0 0.2
2016-Jul-22 18:33S 29°46' E 031°11'2 1.5
2016-Jul-22 17:33S 29°48' E 031°10'1 0.5
2016-Jul-22 16:33S 29°48' E 031°10'2 2.2
2016-Jul-22 15:34S 29°50' E 031°10'9 8.5
2016-Jul-22 14:33S 29°59' E 031°12'1212.5
2016-Jul-22 13:33S 30°10' E 031°06'1312.5
2016-Jul-22 12:33S 30°21' E 030°59'1211.4
2016-Jul-22 11:30S 30°32' E 030°53'  
Track history (hours):
 
Tides and Currents Weather Stations Pressure Air Temp Water Temp Dewpoint Dewpoint Depression Visibility Wind Speed Wind Dir Waves Ship Positions

Althea

Last reported at 2016-Jul-24 15:33 UTC. Time now 2016-Jul-24 16:36 UTC.
Position S 29°52' E 031°00'.

Length 170 m; draft 9.5 m.

Type: Cargo ship. MMSI: 215047000.

Date/timePositionNaut miles runAvg speedWind from/ knotsBaromVisibWave heightAir tempDewpointWater temp
2016-Jul-24 15:33S 29°52' E 031°00'0 0.0
2016-Jul-24 14:33S 29°52' E 031°00'0 0.0
2016-Jul-24 13:30S 29°52' E 031°00'0 0.0
2016-Jul-24 12:33S 29°52' E 031°00'0 0.0
2016-Jul-24 11:33S 29°52' E 031°00'0 0.0
2016-Jul-24 10:33S 29°52' E 031°00'0 0.0
2016-Jul-24 09:33S 29°52' E 031°00'0 0.0
2016-Jul-24 08:33S 29°52' E 031°00'0 0.0
2016-Jul-24 07:27S 29°52' E 031°00'0 0.0
2016-Jul-24 06:30S 29°52' E 031°00'0 0.0
2016-Jul-24 05:33S 29°52' E 031°00'0 0.0
2016-Jul-24 04:33S 29°52' E 031°00'0 0.0
2016-Jul-24 03:33S 29°52' E 031°00'0 0.0
2016-Jul-24 02:33S 29°52' E 031°00'0 0.0
2016-Jul-24 01:33S 29°52' E 031°00'0 0.0
2016-Jul-24 00:33S 29°52' E 031°00'0 0.0
2016-Jul-23 23:33S 29°52' E 031°00'0 0.0
2016-Jul-23 22:33S 29°52' E 031°00'0 0.0
2016-Jul-23 21:33S 29°52' E 031°00'0 0.0
2016-Jul-23 20:33S 29°52' E 031°00'0 0.0
2016-Jul-23 19:33S 29°52' E 031°00'0 0.0
2016-Jul-23 18:33S 29°52' E 031°00'0 0.0
2016-Jul-23 17:33S 29°52' E 031°00'0 0.0
2016-Jul-23 16:27S 29°52' E 031°00'0 0.0
2016-Jul-23 15:33S 29°52' E 031°00'0 0.0
2016-Jul-23 14:33S 29°52' E 031°00'0 0.0
2016-Jul-23 13:30S 29°52' E 031°00'0 0.0
2016-Jul-23 12:33S 29°52' E 031°00'0 0.0
2016-Jul-23 11:33S 29°52' E 031°00'0 0.0
2016-Jul-23 10:30S 29°52' E 031°00'0 0.0
2016-Jul-23 09:33S 29°52' E 031°00'0 0.0
2016-Jul-23 08:30S 29°52' E 031°00'3 0.3
2016-Jul-22 23:33S 29°52' E 031°04'4 4.3
2016-Jul-22 22:33S 29°48' E 031°07'1 1.1
2016-Jul-22 21:33S 29°49' E 031°07'4 4.3
2016-Jul-22 20:33S 29°46' E 031°10'0 0.4
2016-Jul-22 19:33S 29°46' E 031°11'0 0.2
2016-Jul-22 18:33S 29°46' E 031°11'2 1.5
2016-Jul-22 17:33S 29°48' E 031°10'1 0.5
2016-Jul-22 16:33S 29°48' E 031°10'2 2.2
2016-Jul-22 15:34S 29°50' E 031°10'9 8.5
2016-Jul-22 14:33S 29°59' E 031°12'1212.5
2016-Jul-22 13:33S 30°10' E 031°06'1312.5
2016-Jul-22 12:33S 30°21' E 030°59'1211.4
2016-Jul-22 11:30S 30°32' E 030°53'  

Dump ship's entire track history